sensor_id;sensor_type;location;lat;lon;timestamp;temperature;humidity
36710;DHT22;22694;51.040;3.684;2022-09-09T00:04:36;19.80;83.50
36710;DHT22;22694;51.040;3.684;2022-09-09T00:07:46;19.80;83.50
36710;DHT22;22694;51.040;3.684;2022-09-09T00:15:48;19.70;83.60
36710;DHT22;22694;51.040;3.684;2022-09-09T00:18:30;19.80;83.80
36710;DHT22;22694;51.040;3.684;2022-09-09T00:21:07;19.70;83.70
36710;DHT22;22694;51.040;3.684;2022-09-09T00:23:38;19.70;83.60
36710;DHT22;22694;51.040;3.684;2022-09-09T00:28:50;19.70;83.60
36710;DHT22;22694;51.040;3.684;2022-09-09T00:31:24;19.70;83.70
36710;DHT22;22694;51.040;3.684;2022-09-09T00:33:51;19.60;83.60
36710;DHT22;22694;51.040;3.684;2022-09-09T00:36:21;19.60;84.20
36710;DHT22;22694;51.040;3.684;2022-09-09T00:38:56;19.60;83.60
36710;DHT22;22694;51.040;3.684;2022-09-09T00:49:45;19.60;83.60
36710;DHT22;22694;51.040;3.684;2022-09-09T00:52:25;19.60;83.70
36710;DHT22;22694;51.040;3.684;2022-09-09T00:55:16;19.60;84.00
36710;DHT22;22694;51.040;3.684;2022-09-09T00:57:44;19.60;83.70
36710;DHT22;22694;51.040;3.684;2022-09-09T01:05:37;19.50;83.60
36710;DHT22;22694;51.040;3.684;2022-09-09T01:10:56;19.60;83.70
36710;DHT22;22694;51.040;3.684;2022-09-09T01:13:27;19.50;83.70
36710;DHT22;22694;51.040;3.684;2022-09-09T01:15:58;19.50;83.70
36710;DHT22;22694;51.040;3.684;2022-09-09T01:18:29;19.50;83.80
36710;DHT22;22694;51.040;3.684;2022-09-09T01:23:48;19.40;83.70
36710;DHT22;22694;51.040;3.684;2022-09-09T01:26:38;19.40;83.70
36710;DHT22;22694;51.040;3.684;2022-09-09T01:29:23;19.40;83.70
36710;DHT22;22694;51.040;3.684;2022-09-09T01:31:57;19.40;83.60
36710;DHT22;22694;51.040;3.684;2022-09-09T01:34:25;19.40;83.60
36710;DHT22;22694;51.040;3.684;2022-09-09T01:37:03;19.40;83.70
36710;DHT22;22694;51.040;3.684;2022-09-09T01:39:33;19.30;83.60
36710;DHT22;22694;51.040;3.684;2022-09-09T01:42:00;19.30;83.60
36710;DHT22;22694;51.040;3.684;2022-09-09T01:44:27;19.30;83.70
36710;DHT22;22694;51.040;3.684;2022-09-09T01:46:54;19.30;83.70
36710;DHT22;22694;51.040;3.684;2022-09-09T01:49:20;19.30;83.60
36710;DHT22;22694;51.040;3.684;2022-09-09T01:51:49;19.30;83.70
36710;DHT22;22694;51.040;3.684;2022-09-09T01:54:16;19.30;83.70
36710;DHT22;22694;51.040;3.684;2022-09-09T02:02:00;19.20;83.60
36710;DHT22;22694;51.040;3.684;2022-09-09T02:07:47;19.20;83.70
36710;DHT22;22694;51.040;3.684;2022-09-09T02:10:17;19.20;83.70
36710;DHT22;22694;51.040;3.684;2022-09-09T02:12:49;19.10;83.70
36710;DHT22;22694;51.040;3.684;2022-09-09T02:15:39;19.10;83.70
36710;DHT22;22694;51.040;3.684;2022-09-09T02:18:10;19.10;83.70
36710;DHT22;22694;51.040;3.684;2022-09-09T02:20:38;19.10;83.80
36710;DHT22;22694;51.040;3.684;2022-09-09T02:23:05;19.10;83.80
36710;DHT22;22694;51.040;3.684;2022-09-09T02:25:35;19.10;83.90
36710;DHT22;22694;51.040;3.684;2022-09-09T02:28:03;19.10;84.00
36710;DHT22;22694;51.040;3.684;2022-09-09T02:30:32;19.10;84.10
36710;DHT22;22694;51.040;3.684;2022-09-09T02:33:01;19.10;84.10
36710;DHT22;22694;51.040;3.684;2022-09-09T02:35:29;19.10;84.20
36710;DHT22;22694;51.040;3.684;2022-09-09T02:37:59;19.00;84.20
36710;DHT22;22694;51.040;3.684;2022-09-09T02:40:26;19.00;84.30
36710;DHT22;22694;51.040;3.684;2022-09-09T02:42:54;19.00;84.40
36710;DHT22;22694;51.040;3.684;2022-09-09T02:45:24;19.00;84.40
36710;DHT22;22694;51.040;3.684;2022-09-09T02:48:02;19.00;84.50
36710;DHT22;22694;51.040;3.684;2022-09-09T02:50:45;19.00;84.60
36710;DHT22;22694;51.040;3.684;2022-09-09T02:55:39;19.00;84.60
36710;DHT22;22694;51.040;3.684;2022-09-09T02:58:07;18.90;84.60
36710;DHT22;22694;51.040;3.684;2022-09-09T03:00:35;19.00;84.70
36710;DHT22;22694;51.040;3.684;2022-09-09T03:03:05;19.00;84.80
36710;DHT22;22694;51.040;3.684;2022-09-09T03:05:31;18.90;84.80
36710;DHT22;22694;51.040;3.684;2022-09-09T03:07:57;19.00;84.90
36710;DHT22;22694;51.040;3.684;2022-09-09T03:10:23;19.00;84.90
36710;DHT22;22694;51.040;3.684;2022-09-09T03:12:49;19.00;84.90
36710;DHT22;22694;51.040;3.684;2022-09-09T03:15:15;18.90;84.90
36710;DHT22;22694;51.040;3.684;2022-09-09T03:17:41;18.90;85.00
36710;DHT22;22694;51.040;3.684;2022-09-09T03:20:07;19.00;85.00
36710;DHT22;22694;51.040;3.684;2022-09-09T03:22:34;19.00;85.00
36710;DHT22;22694;51.040;3.684;2022-09-09T03:25:00;18.90;85.10
36710;DHT22;22694;51.040;3.684;2022-09-09T03:27:25;18.90;85.10
36710;DHT22;22694;51.040;3.684;2022-09-09T03:29:51;18.90;85.10
36710;DHT22;22694;51.040;3.684;2022-09-09T03:32:18;18.90;85.10
36710;DHT22;22694;51.040;3.684;2022-09-09T03:34:44;18.90;85.20
36710;DHT22;22694;51.040;3.684;2022-09-09T03:37:10;18.90;85.30
36710;DHT22;22694;51.040;3.684;2022-09-09T03:39:36;18.90;85.40
36710;DHT22;22694;51.040;3.684;2022-09-09T03:42:01;18.90;85.40
36710;DHT22;22694;51.040;3.684;2022-09-09T03:44:29;18.90;85.40
36710;DHT22;22694;51.040;3.684;2022-09-09T03:46:55;18.90;85.40
36710;DHT22;22694;51.040;3.684;2022-09-09T03:49:21;18.90;85.50
36710;DHT22;22694;51.040;3.684;2022-09-09T03:51:48;18.80;85.50
36710;DHT22;22694;51.040;3.684;2022-09-09T03:54:13;18.80;85.50
36710;DHT22;22694;51.040;3.684;2022-09-09T03:56:39;18.80;86.20
36710;DHT22;22694;51.040;3.684;2022-09-09T03:59:06;18.80;85.60
36710;DHT22;22694;51.040;3.684;2022-09-09T04:01:34;18.80;85.70
36710;DHT22;22694;51.040;3.684;2022-09-09T04:03:59;18.80;85.60
36710;DHT22;22694;51.040;3.684;2022-09-09T04:06:25;18.80;85.70
36710;DHT22;22694;51.040;3.684;2022-09-09T04:08:51;18.80;85.70
36710;DHT22;22694;51.040;3.684;2022-09-09T04:11:18;18.80;85.70
36710;DHT22;22694;51.040;3.684;2022-09-09T04:13:44;18.80;85.70
36710;DHT22;22694;51.040;3.684;2022-09-09T04:16:11;18.80;85.60
36710;DHT22;22694;51.040;3.684;2022-09-09T04:18:38;18.90;85.80
36710;DHT22;22694;51.040;3.684;2022-09-09T04:21:04;18.90;85.80
36710;DHT22;22694;51.040;3.684;2022-09-09T04:23:32;18.80;85.80
36710;DHT22;22694;51.040;3.684;2022-09-09T04:26:00;19.00;88.00
36710;DHT22;22694;51.040;3.684;2022-09-09T04:28:28;19.10;88.50
36710;DHT22;22694;51.040;3.684;2022-09-09T04:30:54;19.20;87.60
36710;DHT22;22694;51.040;3.684;2022-09-09T04:33:21;19.10;86.50
36710;DHT22;22694;51.040;3.684;2022-09-09T04:35:49;19.10;85.90
36710;DHT22;22694;51.040;3.684;2022-09-09T04:38:17;19.30;85.90
36710;DHT22;22694;51.040;3.684;2022-09-09T04:40:49;19.00;85.70
36710;DHT22;22694;51.040;3.684;2022-09-09T04:43:17;19.00;85.70
36710;DHT22;22694;51.040;3.684;2022-09-09T04:45:47;19.00;85.70
36710;DHT22;22694;51.040;3.684;2022-09-09T04:48:13;19.00;86.40
36710;DHT22;22694;51.040;3.684;2022-09-09T04:50:39;19.00;85.90
36710;DHT22;22694;51.040;3.684;2022-09-09T04:53:06;19.00;85.90
36710;DHT22;22694;51.040;3.684;2022-09-09T04:55:32;19.20;87.30
36710;DHT22;22694;51.040;3.684;2022-09-09T04:58:06;19.20;87.90
36710;DHT22;22694;51.040;3.684;2022-09-09T05:00:36;19.30;88.30
36710;DHT22;22694;51.040;3.684;2022-09-09T05:03:04;19.40;88.50
36710;DHT22;22694;51.040;3.684;2022-09-09T05:05:30;19.50;89.10
36710;DHT22;22694;51.040;3.684;2022-09-09T05:08:04;19.50;88.50
36710;DHT22;22694;51.040;3.684;2022-09-09T05:10:30;19.60;88.50
36710;DHT22;22694;51.040;3.684;2022-09-09T05:12:56;19.60;88.30
36710;DHT22;22694;51.040;3.684;2022-09-09T05:15:22;19.70;88.20
36710;DHT22;22694;51.040;3.684;2022-09-09T05:17:47;19.70;88.00
36710;DHT22;22694;51.040;3.684;2022-09-09T05:20:13;19.70;87.90
36710;DHT22;22694;51.040;3.684;2022-09-09T05:22:38;19.70;87.60
36710;DHT22;22694;51.040;3.684;2022-09-09T05:25:04;19.70;87.50
36710;DHT22;22694;51.040;3.684;2022-09-09T05:27:30;19.70;87.40
36710;DHT22;22694;51.040;3.684;2022-09-09T05:29:58;19.80;87.40
36710;DHT22;22694;51.040;3.684;2022-09-09T05:32:24;19.80;87.20
36710;DHT22;22694;51.040;3.684;2022-09-09T05:34:49;19.80;87.20
36710;DHT22;22694;51.040;3.684;2022-09-09T05:37:16;19.80;87.10
36710;DHT22;22694;51.040;3.684;2022-09-09T05:39:42;19.80;87.10
36710;DHT22;22694;51.040;3.684;2022-09-09T05:42:08;19.80;87.00
36710;DHT22;22694;51.040;3.684;2022-09-09T05:44:33;19.80;86.90
36710;DHT22;22694;51.040;3.684;2022-09-09T05:47:00;19.80;86.90
36710;DHT22;22694;51.040;3.684;2022-09-09T05:49:25;19.80;86.80
36710;DHT22;22694;51.040;3.684;2022-09-09T05:51:51;19.80;86.70
36710;DHT22;22694;51.040;3.684;2022-09-09T05:54:17;19.80;86.70
36710;DHT22;22694;51.040;3.684;2022-09-09T05:56:43;19.80;86.70
36710;DHT22;22694;51.040;3.684;2022-09-09T05:59:08;19.80;86.60
36710;DHT22;22694;51.040;3.684;2022-09-09T06:01:36;19.80;86.60
36710;DHT22;22694;51.040;3.684;2022-09-09T06:04:06;19.80;86.50
36710;DHT22;22694;51.040;3.684;2022-09-09T06:06:34;19.80;86.50
36710;DHT22;22694;51.040;3.684;2022-09-09T06:09:04;19.80;86.50
36710;DHT22;22694;51.040;3.684;2022-09-09T06:11:32;19.80;86.40
36710;DHT22;22694;51.040;3.684;2022-09-09T06:13:58;19.80;86.40
36710;DHT22;22694;51.040;3.684;2022-09-09T06:16:26;19.80;86.30
36710;DHT22;22694;51.040;3.684;2022-09-09T06:18:53;19.80;86.30
36710;DHT22;22694;51.040;3.684;2022-09-09T06:21:30;19.80;86.30
36710;DHT22;22694;51.040;3.684;2022-09-09T06:23:56;19.80;86.30
36710;DHT22;22694;51.040;3.684;2022-09-09T06:26:26;19.80;86.20
36710;DHT22;22694;51.040;3.684;2022-09-09T06:28:54;19.80;86.20
36710;DHT22;22694;51.040;3.684;2022-09-09T06:31:21;19.80;86.20
36710;DHT22;22694;51.040;3.684;2022-09-09T06:33:52;19.80;86.20
36710;DHT22;22694;51.040;3.684;2022-09-09T06:36:23;19.80;86.20
36710;DHT22;22694;51.040;3.684;2022-09-09T06:38:49;19.80;86.10
36710;DHT22;22694;51.040;3.684;2022-09-09T06:41:17;19.80;86.10
36710;DHT22;22694;51.040;3.684;2022-09-09T06:43:44;19.80;86.10
36710;DHT22;22694;51.040;3.684;2022-09-09T06:46:11;19.80;86.10
36710;DHT22;22694;51.040;3.684;2022-09-09T06:48:38;19.90;86.20
36710;DHT22;22694;51.040;3.684;2022-09-09T06:51:06;19.90;86.10
36710;DHT22;22694;51.040;3.684;2022-09-09T06:53:34;19.90;86.10
36710;DHT22;22694;51.040;3.684;2022-09-09T06:56:21;19.90;86.10
36710;DHT22;22694;51.040;3.684;2022-09-09T06:58:49;19.90;86.10
36710;DHT22;22694;51.040;3.684;2022-09-09T07:01:24;19.90;86.10
36710;DHT22;22694;51.040;3.684;2022-09-09T07:03:52;20.00;86.10
36710;DHT22;22694;51.040;3.684;2022-09-09T07:06:21;20.00;85.90
36710;DHT22;22694;51.040;3.684;2022-09-09T07:08:52;20.00;85.80
36710;DHT22;22694;51.040;3.684;2022-09-09T07:11:19;20.00;85.70
36710;DHT22;22694;51.040;3.684;2022-09-09T07:13:45;19.90;85.70
36710;DHT22;22694;51.040;3.684;2022-09-09T07:16:13;19.90;85.70
36710;DHT22;22694;51.040;3.684;2022-09-09T07:18:40;19.90;85.70
36710;DHT22;22694;51.040;3.684;2022-09-09T07:21:08;19.80;85.80
36710;DHT22;22694;51.040;3.684;2022-09-09T07:23:34;19.80;85.90
36710;DHT22;22694;51.040;3.684;2022-09-09T07:26:01;19.80;85.90
36710;DHT22;22694;51.040;3.684;2022-09-09T07:28:27;19.80;86.00
36710;DHT22;22694;51.040;3.684;2022-09-09T07:31:01;19.80;86.10
36710;DHT22;22694;51.040;3.684;2022-09-09T07:33:32;19.80;86.60
36710;DHT22;22694;51.040;3.684;2022-09-09T07:38:45;19.80;86.20
36710;DHT22;22694;51.040;3.684;2022-09-09T07:41:24;19.80;86.30
36710;DHT22;22694;51.040;3.684;2022-09-09T07:43:51;19.80;86.40
36710;DHT22;22694;51.040;3.684;2022-09-09T07:46:18;19.90;86.30
36710;DHT22;22694;51.040;3.684;2022-09-09T07:48:49;20.00;86.30
36710;DHT22;22694;51.040;3.684;2022-09-09T07:51:18;20.00;86.90
36710;DHT22;22694;51.040;3.684;2022-09-09T07:53:46;20.00;86.20
36710;DHT22;22694;51.040;3.684;2022-09-09T07:56:14;19.90;85.90
36710;DHT22;22694;51.040;3.684;2022-09-09T07:58:44;19.90;85.80
36710;DHT22;22694;51.040;3.684;2022-09-09T08:01:13;19.80;85.70
36710;DHT22;22694;51.040;3.684;2022-09-09T08:03:39;19.80;86.30
36710;DHT22;22694;51.040;3.684;2022-09-09T08:06:07;19.70;85.80
36710;DHT22;22694;51.040;3.684;2022-09-09T08:08:34;19.70;85.80
36710;DHT22;22694;51.040;3.684;2022-09-09T08:11:12;19.60;85.90
36710;DHT22;22694;51.040;3.684;2022-09-09T08:13:39;19.60;85.90
36710;DHT22;22694;51.040;3.684;2022-09-09T08:16:11;19.60;86.10
36710;DHT22;22694;51.040;3.684;2022-09-09T08:18:37;19.60;86.10
36710;DHT22;22694;51.040;3.684;2022-09-09T08:21:18;19.60;86.20
36710;DHT22;22694;51.040;3.684;2022-09-09T08:23:45;19.60;86.20
36710;DHT22;22694;51.040;3.684;2022-09-09T08:26:19;19.60;86.50
36710;DHT22;22694;51.040;3.684;2022-09-09T08:28:47;19.60;86.70
36710;DHT22;22694;51.040;3.684;2022-09-09T08:31:15;19.50;86.70
36710;DHT22;22694;51.040;3.684;2022-09-09T08:33:42;19.60;86.80
36710;DHT22;22694;51.040;3.684;2022-09-09T08:36:11;19.60;87.70
36710;DHT22;22694;51.040;3.684;2022-09-09T08:38:37;19.50;87.10
36710;DHT22;22694;51.040;3.684;2022-09-09T08:41:17;19.50;87.10
36710;DHT22;22694;51.040;3.684;2022-09-09T08:43:48;19.60;87.10
36710;DHT22;22694;51.040;3.684;2022-09-09T08:46:25;19.50;87.00
36710;DHT22;22694;51.040;3.684;2022-09-09T08:52:23;19.50;87.00
36710;DHT22;22694;51.040;3.684;2022-09-09T08:54:51;19.50;87.30
36710;DHT22;22694;51.040;3.684;2022-09-09T08:57:24;19.70;89.00
36710;DHT22;22694;51.040;3.684;2022-09-09T08:59:52;19.80;89.40
36710;DHT22;22694;51.040;3.684;2022-09-09T09:02:46;19.80;88.90
36710;DHT22;22694;51.040;3.684;2022-09-09T09:10:51;19.80;87.60
36710;DHT22;22694;51.040;3.684;2022-09-09T09:13:20;19.80;87.40
36710;DHT22;22694;51.040;3.684;2022-09-09T09:16:00;19.80;87.40
36710;DHT22;22694;51.040;3.684;2022-09-09T09:18:27;19.70;87.30
36710;DHT22;22694;51.040;3.684;2022-09-09T09:23:42;19.90;88.10
36710;DHT22;22694;51.040;3.684;2022-09-09T09:26:10;19.90;88.10
36710;DHT22;22694;51.040;3.684;2022-09-09T09:28:39;19.90;87.20
36710;DHT22;22694;51.040;3.684;2022-09-09T09:31:14;19.80;86.30
36710;DHT22;22694;51.040;3.684;2022-09-09T09:36:12;19.80;87.20
36710;DHT22;22694;51.040;3.684;2022-09-09T09:38:58;19.80;87.10
36710;DHT22;22694;51.040;3.684;2022-09-09T09:41:41;19.80;87.00
36710;DHT22;22694;51.040;3.684;2022-09-09T09:44:27;19.70;86.90
36710;DHT22;22694;51.040;3.684;2022-09-09T09:47:05;19.70;86.80
36710;DHT22;22694;51.040;3.684;2022-09-09T09:49:31;19.70;87.00
36710;DHT22;22694;51.040;3.684;2022-09-09T09:52:03;19.70;87.00
36710;DHT22;22694;51.040;3.684;2022-09-09T09:54:32;19.70;87.00
36710;DHT22;22694;51.040;3.684;2022-09-09T09:57:12;19.60;87.10
36710;DHT22;22694;51.040;3.684;2022-09-09T09:59:40;19.70;87.20
36710;DHT22;22694;51.040;3.684;2022-09-09T10:02:13;19.60;87.10
36710;DHT22;22694;51.040;3.684;2022-09-09T10:04:39;19.60;87.00
36710;DHT22;22694;51.040;3.684;2022-09-09T10:07:21;19.60;87.00
36710;DHT22;22694;51.040;3.684;2022-09-09T10:09:55;19.60;87.00
36710;DHT22;22694;51.040;3.684;2022-09-09T10:13:05;19.60;87.60
36710;DHT22;22694;51.040;3.684;2022-09-09T10:26:26;19.70;87.20
36710;DHT22;22694;51.040;3.684;2022-09-09T10:29:18;19.70;87.10
36710;DHT22;22694;51.040;3.684;2022-09-09T10:34:53;19.90;87.90
36710;DHT22;22694;51.040;3.684;2022-09-09T10:43:04;20.00;87.70
36710;DHT22;22694;51.040;3.684;2022-09-09T10:51:35;20.10;87.70
36710;DHT22;22694;51.040;3.684;2022-09-09T10:56:49;20.20;87.90
36710;DHT22;22694;51.040;3.684;2022-09-09T10:59:22;20.20;88.20
36710;DHT22;22694;51.040;3.684;2022-09-09T11:04:42;20.10;87.90
36710;DHT22;22694;51.040;3.684;2022-09-09T11:07:14;20.10;87.70
36710;DHT22;22694;51.040;3.684;2022-09-09T11:09:49;20.10;87.80
36710;DHT22;22694;51.040;3.684;2022-09-09T11:12:19;20.10;88.20
36710;DHT22;22694;51.040;3.684;2022-09-09T11:14:59;20.20;89.10
36710;DHT22;22694;51.040;3.684;2022-09-09T11:17:46;20.30;90.00
36710;DHT22;22694;51.040;3.684;2022-09-09T11:20:14;20.30;90.20
36710;DHT22;22694;51.040;3.684;2022-09-09T11:23:03;20.40;90.30
36710;DHT22;22694;51.040;3.684;2022-09-09T11:25:35;20.40;90.40
36710;DHT22;22694;51.040;3.684;2022-09-09T11:33:52;20.60;90.30
36710;DHT22;22694;51.040;3.684;2022-09-09T11:36:47;20.70;90.30
36710;DHT22;22694;51.040;3.684;2022-09-09T11:42:26;20.80;90.20
36710;DHT22;22694;51.040;3.684;2022-09-09T11:44:52;20.90;90.20
36710;DHT22;22694;51.040;3.684;2022-09-09T11:47:28;21.00;90.10
36710;DHT22;22694;51.040;3.684;2022-09-09T11:50:40;21.00;90.00
36710;DHT22;22694;51.040;3.684;2022-09-09T11:52:43;21.00;90.00
36710;DHT22;22694;51.040;3.684;2022-09-09T11:55:26;21.00;89.80
36710;DHT22;22694;51.040;3.684;2022-09-09T11:58:06;21.00;89.90
36710;DHT22;22694;51.040;3.684;2022-09-09T12:00:47;21.10;90.00
36710;DHT22;22694;51.040;3.684;2022-09-09T12:03:49;21.00;89.80
36710;DHT22;22694;51.040;3.684;2022-09-09T12:06:19;21.00;89.60
36710;DHT22;22694;51.040;3.684;2022-09-09T12:08:57;21.10;89.20
36710;DHT22;22694;51.040;3.684;2022-09-09T12:11:28;21.10;89.00
36710;DHT22;22694;51.040;3.684;2022-09-09T12:14:00;21.10;88.10
36710;DHT22;22694;51.040;3.684;2022-09-09T12:16:36;21.10;87.90
36710;DHT22;22694;51.040;3.684;2022-09-09T12:19:20;21.10;87.80
36710;DHT22;22694;51.040;3.684;2022-09-09T12:24:23;21.20;87.50
36710;DHT22;22694;51.040;3.684;2022-09-09T12:27:11;21.20;87.40
36710;DHT22;22694;51.040;3.684;2022-09-09T12:29:53;21.30;87.20
36710;DHT22;22694;51.040;3.684;2022-09-09T12:32:25;21.30;87.10
36710;DHT22;22694;51.040;3.684;2022-09-09T12:35:07;21.30;86.90
36710;DHT22;22694;51.040;3.684;2022-09-09T12:37:45;21.30;86.70
36710;DHT22;22694;51.040;3.684;2022-09-09T12:40:26;21.40;86.60
36710;DHT22;22694;51.040;3.684;2022-09-09T12:42:52;21.40;86.50
36710;DHT22;22694;51.040;3.684;2022-09-09T12:45:23;21.40;86.40
36710;DHT22;22694;51.040;3.684;2022-09-09T12:48:07;21.40;86.20
36710;DHT22;22694;51.040;3.684;2022-09-09T12:50:50;21.50;86.10
36710;DHT22;22694;51.040;3.684;2022-09-09T12:53:23;21.50;85.90
36710;DHT22;22694;51.040;3.684;2022-09-09T12:56:19;21.50;85.70
36710;DHT22;22694;51.040;3.684;2022-09-09T12:58:47;21.50;86.10
36710;DHT22;22694;51.040;3.684;2022-09-09T13:01:28;21.50;85.40
36710;DHT22;22694;51.040;3.684;2022-09-09T13:03:54;21.50;85.30
36710;DHT22;22694;51.040;3.684;2022-09-09T13:06:23;21.50;85.20
36710;DHT22;22694;51.040;3.684;2022-09-09T13:08:51;21.50;85.00
36710;DHT22;22694;51.040;3.684;2022-09-09T13:11:41;21.50;85.00
36710;DHT22;22694;51.040;3.684;2022-09-09T13:14:05;21.50;85.00
36710;DHT22;22694;51.040;3.684;2022-09-09T13:16:35;21.50;84.90
36710;DHT22;22694;51.040;3.684;2022-09-09T13:19:14;21.50;85.00
36710;DHT22;22694;51.040;3.684;2022-09-09T13:21:42;21.50;84.90
36710;DHT22;22694;51.040;3.684;2022-09-09T13:24:32;21.60;85.00
36710;DHT22;22694;51.040;3.684;2022-09-09T13:27:03;21.60;85.00
36710;DHT22;22694;51.040;3.684;2022-09-09T13:29:31;21.60;85.00
36710;DHT22;22694;51.040;3.684;2022-09-09T13:32:05;21.70;85.30
36710;DHT22;22694;51.040;3.684;2022-09-09T13:34:35;21.80;85.50
36710;DHT22;22694;51.040;3.684;2022-09-09T13:37:32;21.80;85.50
36710;DHT22;22694;51.040;3.684;2022-09-09T13:39:59;21.80;85.40
36710;DHT22;22694;51.040;3.684;2022-09-09T13:42:30;21.90;85.40
36710;DHT22;22694;51.040;3.684;2022-09-09T13:44:58;22.00;85.40
36710;DHT22;22694;51.040;3.684;2022-09-09T13:47:31;22.00;85.30
36710;DHT22;22694;51.040;3.684;2022-09-09T13:49:57;22.00;85.10
36710;DHT22;22694;51.040;3.684;2022-09-09T13:52:23;22.00;85.00
36710;DHT22;22694;51.040;3.684;2022-09-09T13:54:50;22.10;85.60
36710;DHT22;22694;51.040;3.684;2022-09-09T13:57:21;22.10;84.90
36710;DHT22;22694;51.040;3.684;2022-09-09T13:59:50;22.10;84.70
36710;DHT22;22694;51.040;3.684;2022-09-09T14:02:16;22.10;84.70
36710;DHT22;22694;51.040;3.684;2022-09-09T14:04:42;22.20;84.70
36710;DHT22;22694;51.040;3.684;2022-09-09T14:07:13;22.20;84.70
36710;DHT22;22694;51.040;3.684;2022-09-09T14:09:40;22.20;84.60
36710;DHT22;22694;51.040;3.684;2022-09-09T14:12:10;22.20;84.60
36710;DHT22;22694;51.040;3.684;2022-09-09T14:14:36;22.20;84.60
36710;DHT22;22694;51.040;3.684;2022-09-09T14:17:01;22.20;84.60
36710;DHT22;22694;51.040;3.684;2022-09-09T14:19:28;22.20;84.60
36710;DHT22;22694;51.040;3.684;2022-09-09T14:21:54;22.30;84.70
36710;DHT22;22694;51.040;3.684;2022-09-09T14:24:19;22.30;84.90
36710;DHT22;22694;51.040;3.684;2022-09-09T14:26:45;22.30;84.80
36710;DHT22;22694;51.040;3.684;2022-09-09T14:29:11;22.30;84.50
36710;DHT22;22694;51.040;3.684;2022-09-09T14:31:39;22.30;84.50
36710;DHT22;22694;51.040;3.684;2022-09-09T14:34:04;22.30;84.50
36710;DHT22;22694;51.040;3.684;2022-09-09T14:36:30;22.30;84.70
36710;DHT22;22694;51.040;3.684;2022-09-09T14:38:56;22.20;84.60
36710;DHT22;22694;51.040;3.684;2022-09-09T14:41:23;22.30;84.70
36710;DHT22;22694;51.040;3.684;2022-09-09T14:43:48;22.30;84.70
36710;DHT22;22694;51.040;3.684;2022-09-09T14:46:16;22.30;84.70
36710;DHT22;22694;51.040;3.684;2022-09-09T14:48:43;22.30;85.40
36710;DHT22;22694;51.040;3.684;2022-09-09T14:51:17;22.30;84.70
36710;DHT22;22694;51.040;3.684;2022-09-09T14:53:45;22.40;84.70
36710;DHT22;22694;51.040;3.684;2022-09-09T14:56:16;22.40;84.90
36710;DHT22;22694;51.040;3.684;2022-09-09T14:58:43;22.40;84.70
36710;DHT22;22694;51.040;3.684;2022-09-09T15:01:12;22.50;84.40
36710;DHT22;22694;51.040;3.684;2022-09-09T15:03:39;22.50;84.20
36710;DHT22;22694;51.040;3.684;2022-09-09T15:06:10;22.60;84.10
36710;DHT22;22694;51.040;3.684;2022-09-09T15:08:36;22.60;83.90
36710;DHT22;22694;51.040;3.684;2022-09-09T15:11:04;22.70;83.70
36710;DHT22;22694;51.040;3.684;2022-09-09T15:13:30;22.70;83.40
36710;DHT22;22694;51.040;3.684;2022-09-09T15:16:02;22.80;88.00
36710;DHT22;22694;51.040;3.684;2022-09-09T15:18:28;23.00;88.30
36710;DHT22;22694;51.040;3.684;2022-09-09T15:20:54;23.10;87.00
36710;DHT22;22694;51.040;3.684;2022-09-09T15:23:20;23.10;85.70
36710;DHT22;22694;51.040;3.684;2022-09-09T15:25:55;23.00;84.70
36710;DHT22;22694;51.040;3.684;2022-09-09T15:28:22;23.00;83.90
36710;DHT22;22694;51.040;3.684;2022-09-09T15:30:51;23.00;83.40
36710;DHT22;22694;51.040;3.684;2022-09-09T15:33:19;23.00;82.90
36710;DHT22;22694;51.040;3.684;2022-09-09T15:35:45;23.00;82.60
36710;DHT22;22694;51.040;3.684;2022-09-09T15:38:11;22.90;81.70
36710;DHT22;22694;51.040;3.684;2022-09-09T15:40:39;22.80;81.60
36710;DHT22;22694;51.040;3.684;2022-09-09T15:43:05;22.80;81.60
36710;DHT22;22694;51.040;3.684;2022-09-09T15:45:32;22.70;81.70
36710;DHT22;22694;51.040;3.684;2022-09-09T15:47:59;22.70;81.60
36710;DHT22;22694;51.040;3.684;2022-09-09T15:50:25;22.60;81.50
36710;DHT22;22694;51.040;3.684;2022-09-09T15:52:51;22.60;81.50
36710;DHT22;22694;51.040;3.684;2022-09-09T15:55:19;22.60;81.40
36710;DHT22;22694;51.040;3.684;2022-09-09T15:57:46;22.50;81.40
36710;DHT22;22694;51.040;3.684;2022-09-09T16:00:12;22.50;81.50
36710;DHT22;22694;51.040;3.684;2022-09-09T16:02:38;22.50;81.50
36710;DHT22;22694;51.040;3.684;2022-09-09T16:05:04;22.50;81.80
36710;DHT22;22694;51.040;3.684;2022-09-09T16:07:30;22.40;81.70
36710;DHT22;22694;51.040;3.684;2022-09-09T16:09:55;22.40;82.20
36710;DHT22;22694;51.040;3.684;2022-09-09T16:12:21;22.40;81.90
36710;DHT22;22694;51.040;3.684;2022-09-09T16:14:47;22.40;82.30
36710;DHT22;22694;51.040;3.684;2022-09-09T16:17:12;22.40;82.30
36710;DHT22;22694;51.040;3.684;2022-09-09T16:19:39;22.40;83.00
36710;DHT22;22694;51.040;3.684;2022-09-09T16:22:05;22.40;83.10
36710;DHT22;22694;51.040;3.684;2022-09-09T16:24:32;22.40;83.90
36710;DHT22;22694;51.040;3.684;2022-09-09T16:26:58;22.40;83.10
36710;DHT22;22694;51.040;3.684;2022-09-09T16:29:24;22.30;82.80
36710;DHT22;22694;51.040;3.684;2022-09-09T16:31:53;22.30;82.80
36710;DHT22;22694;51.040;3.684;2022-09-09T16:34:19;22.30;82.90
36710;DHT22;22694;51.040;3.684;2022-09-09T16:36:46;22.30;82.60
36710;DHT22;22694;51.040;3.684;2022-09-09T16:39:15;22.30;82.60
36710;DHT22;22694;51.040;3.684;2022-09-09T16:41:42;22.30;82.50
36710;DHT22;22694;51.040;3.684;2022-09-09T16:44:10;22.30;82.40
36710;DHT22;22694;51.040;3.684;2022-09-09T16:46:38;22.30;82.40
36710;DHT22;22694;51.040;3.684;2022-09-09T16:49:06;22.20;82.40
36710;DHT22;22694;51.040;3.684;2022-09-09T16:51:35;22.20;82.40
36710;DHT22;22694;51.040;3.684;2022-09-09T16:54:03;22.10;82.30
36710;DHT22;22694;51.040;3.684;2022-09-09T16:56:31;22.20;82.40
36710;DHT22;22694;51.040;3.684;2022-09-09T16:59:04;22.10;82.40
36710;DHT22;22694;51.040;3.684;2022-09-09T17:01:32;22.10;82.40
36710;DHT22;22694;51.040;3.684;2022-09-09T17:04:01;22.10;82.50
36710;DHT22;22694;51.040;3.684;2022-09-09T17:06:28;22.10;82.50
36710;DHT22;22694;51.040;3.684;2022-09-09T17:08:59;22.10;82.50
36710;DHT22;22694;51.040;3.684;2022-09-09T17:11:25;22.10;82.50
36710;DHT22;22694;51.040;3.684;2022-09-09T17:13:52;22.00;82.50
36710;DHT22;22694;51.040;3.684;2022-09-09T17:16:19;22.00;82.60
36710;DHT22;22694;51.040;3.684;2022-09-09T17:18:47;22.00;82.70
36710;DHT22;22694;51.040;3.684;2022-09-09T17:21:16;22.00;82.80
36710;DHT22;22694;51.040;3.684;2022-09-09T17:23:42;22.00;82.90
36710;DHT22;22694;51.040;3.684;2022-09-09T17:26:13;21.90;82.90
36710;DHT22;22694;51.040;3.684;2022-09-09T17:28:40;21.90;83.00
36710;DHT22;22694;51.040;3.684;2022-09-09T17:31:08;21.90;83.00